sensor_id;sensor_type;location;lat;lon;timestamp;P1;durP1;ratioP1;P2;durP2;ratioP2
44995;SDS011;30729;49.486;10.792;2022-09-20T00:01:03;3.97;;;1.50;;
44995;SDS011;30729;49.486;10.792;2022-09-20T00:03:37;11.23;;;1.80;;
44995;SDS011;30729;49.486;10.792;2022-09-20T00:06:05;5.82;;;1.50;;
44995;SDS011;30729;49.486;10.792;2022-09-20T00:08:32;7.60;;;1.52;;
44995;SDS011;30729;49.486;10.792;2022-09-20T00:11:02;8.60;;;1.70;;
44995;SDS011;30729;49.486;10.792;2022-09-20T00:13:28;8.30;;;1.80;;
44995;SDS011;30729;49.486;10.792;2022-09-20T00:15:54;6.00;;;1.60;;
44995;SDS011;30729;49.486;10.792;2022-09-20T00:18:20;5.68;;;1.40;;
44995;SDS011;30729;49.486;10.792;2022-09-20T00:20:46;8.25;;;1.70;;
44995;SDS011;30729;49.486;10.792;2022-09-20T00:23:13;5.75;;;1.65;;
44995;SDS011;30729;49.486;10.792;2022-09-20T00:25:39;5.25;;;1.92;;
44995;SDS011;30729;49.486;10.792;2022-09-20T00:28:05;3.60;;;1.67;;
44995;SDS011;30729;49.486;10.792;2022-09-20T00:30:31;4.53;;;1.63;;
44995;SDS011;30729;49.486;10.792;2022-09-20T00:32:57;5.43;;;1.40;;
44995;SDS011;30729;49.486;10.792;2022-09-20T00:35:22;5.07;;;1.50;;
44995;SDS011;30729;49.486;10.792;2022-09-20T00:37:48;6.90;;;1.60;;
44995;SDS011;30729;49.486;10.792;2022-09-20T00:40:17;4.95;;;1.73;;
44995;SDS011;30729;49.486;10.792;2022-09-20T00:42:44;4.57;;;1.50;;
44995;SDS011;30729;49.486;10.792;2022-09-20T00:45:21;9.70;;;1.65;;
44995;SDS011;30729;49.486;10.792;2022-09-20T00:50:44;6.43;;;2.10;;
44995;SDS011;30729;49.486;10.792;2022-09-20T00:55:42;6.53;;;1.92;;
44995;SDS011;30729;49.486;10.792;2022-09-20T00:58:11;7.35;;;1.63;;
44995;SDS011;30729;49.486;10.792;2022-09-20T01:00:38;4.07;;;1.35;;
44995;SDS011;30729;49.486;10.792;2022-09-20T01:03:05;3.90;;;1.45;;
44995;SDS011;30729;49.486;10.792;2022-09-20T01:05:34;5.15;;;1.55;;
44995;SDS011;30729;49.486;10.792;2022-09-20T01:08:01;5.15;;;1.35;;
44995;SDS011;30729;49.486;10.792;2022-09-20T01:10:27;6.18;;;1.92;;
44995;SDS011;30729;49.486;10.792;2022-09-20T01:12:53;7.45;;;1.80;;
44995;SDS011;30729;49.486;10.792;2022-09-20T01:15:18;7.68;;;1.88;;
44995;SDS011;30729;49.486;10.792;2022-09-20T01:17:46;7.97;;;1.83;;
44995;SDS011;30729;49.486;10.792;2022-09-20T01:28:42;8.20;;;1.52;;
44995;SDS011;30729;49.486;10.792;2022-09-20T01:31:16;9.50;;;1.92;;
44995;SDS011;30729;49.486;10.792;2022-09-20T01:33:52;4.30;;;1.52;;
44995;SDS011;30729;49.486;10.792;2022-09-20T01:36:24;11.30;;;1.50;;
44995;SDS011;30729;49.486;10.792;2022-09-20T01:46:43;9.00;;;2.10;;
44995;SDS011;30729;49.486;10.792;2022-09-20T01:55:00;7.05;;;1.77;;
44995;SDS011;30729;49.486;10.792;2022-09-20T02:03:37;14.23;;;1.95;;
44995;SDS011;30729;49.486;10.792;2022-09-20T02:06:27;7.10;;;1.90;;
44995;SDS011;30729;49.486;10.792;2022-09-20T02:09:29;9.90;;;3.15;;
44995;SDS011;30729;49.486;10.792;2022-09-20T02:14:57;7.90;;;1.80;;
44995;SDS011;30729;49.486;10.792;2022-09-20T02:20:31;8.63;;;2.47;;
44995;SDS011;30729;49.486;10.792;2022-09-20T02:32:13;8.80;;;1.90;;
44995;SDS011;30729;49.486;10.792;2022-09-20T02:35:23;9.35;;;2.65;;
44995;SDS011;30729;49.486;10.792;2022-09-20T02:38:10;10.65;;;1.83;;
44995;SDS011;30729;49.486;10.792;2022-09-20T02:48:53;10.35;;;2.80;;
44995;SDS011;30729;49.486;10.792;2022-09-20T02:51:38;7.90;;;2.10;;
44995;SDS011;30729;49.486;10.792;2022-09-20T02:54:34;10.40;;;2.35;;
44995;SDS011;30729;49.486;10.792;2022-09-20T03:03:07;11.55;;;2.35;;
44995;SDS011;30729;49.486;10.792;2022-09-20T03:11:09;7.43;;;2.25;;
44995;SDS011;30729;49.486;10.792;2022-09-20T03:33:17;6.75;;;1.90;;
44995;SDS011;30729;49.486;10.792;2022-09-20T03:42:27;8.55;;;2.83;;
44995;SDS011;30729;49.486;10.792;2022-09-20T03:56:51;7.87;;;2.30;;
44995;SDS011;30729;49.486;10.792;2022-09-20T04:05:06;6.82;;;2.70;;
44995;SDS011;30729;49.486;10.792;2022-09-20T04:07:54;8.98;;;2.75;;
44995;SDS011;30729;49.486;10.792;2022-09-20T04:13:25;8.40;;;2.60;;
44995;SDS011;30729;49.486;10.792;2022-09-20T04:19:00;15.40;;;3.50;;
44995;SDS011;30729;49.486;10.792;2022-09-20T04:21:55;9.02;;;2.80;;
44995;SDS011;30729;49.486;10.792;2022-09-20T04:27:14;7.60;;;2.80;;
44995;SDS011;30729;49.486;10.792;2022-09-20T04:29:52;9.93;;;3.28;;
44995;SDS011;30729;49.486;10.792;2022-09-20T04:32:29;11.48;;;3.38;;
44995;SDS011;30729;49.486;10.792;2022-09-20T04:35:13;9.95;;;3.42;;
44995;SDS011;30729;49.486;10.792;2022-09-20T04:37:59;10.27;;;3.72;;
44995;SDS011;30729;49.486;10.792;2022-09-20T04:57:10;13.23;;;4.55;;
44995;SDS011;30729;49.486;10.792;2022-09-20T05:10:46;12.60;;;5.10;;
44995;SDS011;30729;49.486;10.792;2022-09-20T05:13:20;9.30;;;4.32;;
44995;SDS011;30729;49.486;10.792;2022-09-20T05:24:19;12.80;;;5.47;;
44995;SDS011;30729;49.486;10.792;2022-09-20T05:30:02;10.30;;;5.13;;
44995;SDS011;30729;49.486;10.792;2022-09-20T05:35:28;10.43;;;6.03;;
44995;SDS011;30729;49.486;10.792;2022-09-20T05:51:58;16.77;;;6.18;;
44995;SDS011;30729;49.486;10.792;2022-09-20T06:00:08;21.88;;;7.07;;
44995;SDS011;30729;49.486;10.792;2022-09-20T06:06:03;16.50;;;5.35;;
44995;SDS011;30729;49.486;10.792;2022-09-20T06:17:09;16.83;;;5.90;;
44995;SDS011;30729;49.486;10.792;2022-09-20T06:19:44;15.02;;;5.95;;
44995;SDS011;30729;49.486;10.792;2022-09-20T06:24:50;14.30;;;6.32;;
44995;SDS011;30729;49.486;10.792;2022-09-20T06:27:34;12.25;;;4.80;;
44995;SDS011;30729;49.486;10.792;2022-09-20T06:30:24;14.27;;;5.18;;
44995;SDS011;30729;49.486;10.792;2022-09-20T06:33:00;15.00;;;5.20;;
44995;SDS011;30729;49.486;10.792;2022-09-20T06:38:10;15.25;;;6.47;;
44995;SDS011;30729;49.486;10.792;2022-09-20T06:41:04;15.85;;;5.57;;
44995;SDS011;30729;49.486;10.792;2022-09-20T06:43:48;13.63;;;5.80;;
44995;SDS011;30729;49.486;10.792;2022-09-20T06:46:14;14.30;;;5.82;;
44995;SDS011;30729;49.486;10.792;2022-09-20T06:48:40;13.45;;;5.20;;
44995;SDS011;30729;49.486;10.792;2022-09-20T06:51:06;15.95;;;4.82;;
44995;SDS011;30729;49.486;10.792;2022-09-20T06:53:34;14.32;;;6.97;;
44995;SDS011;30729;49.486;10.792;2022-09-20T06:56:03;16.58;;;5.38;;
44995;SDS011;30729;49.486;10.792;2022-09-20T06:58:29;15.65;;;6.20;;
44995;SDS011;30729;49.486;10.792;2022-09-20T07:00:55;13.40;;;5.00;;
44995;SDS011;30729;49.486;10.792;2022-09-20T07:03:20;12.57;;;4.50;;
44995;SDS011;30729;49.486;10.792;2022-09-20T07:05:46;9.57;;;4.40;;
44995;SDS011;30729;49.486;10.792;2022-09-20T07:08:11;13.75;;;5.13;;
44995;SDS011;30729;49.486;10.792;2022-09-20T07:10:36;10.32;;;4.60;;
44995;SDS011;30729;49.486;10.792;2022-09-20T07:13:03;16.30;;;5.57;;
44995;SDS011;30729;49.486;10.792;2022-09-20T07:15:30;8.05;;;3.50;;
44995;SDS011;30729;49.486;10.792;2022-09-20T07:17:56;11.35;;;4.18;;
44995;SDS011;30729;49.486;10.792;2022-09-20T07:20:22;13.57;;;4.10;;
44995;SDS011;30729;49.486;10.792;2022-09-20T07:22:48;15.07;;;4.45;;
44995;SDS011;30729;49.486;10.792;2022-09-20T07:25:14;15.00;;;3.88;;
44995;SDS011;30729;49.486;10.792;2022-09-20T07:27:42;13.88;;;4.15;;
44995;SDS011;30729;49.486;10.792;2022-09-20T07:30:09;13.20;;;3.90;;
44995;SDS011;30729;49.486;10.792;2022-09-20T07:32:35;10.75;;;4.50;;
44995;SDS011;30729;49.486;10.792;2022-09-20T07:35:00;9.30;;;3.55;;
44995;SDS011;30729;49.486;10.792;2022-09-20T07:37:26;7.57;;;3.45;;
44995;SDS011;30729;49.486;10.792;2022-09-20T07:39:51;13.85;;;4.90;;
44995;SDS011;30729;49.486;10.792;2022-09-20T07:42:16;12.68;;;4.00;;
44995;SDS011;30729;49.486;10.792;2022-09-20T07:44:42;12.80;;;3.97;;
44995;SDS011;30729;49.486;10.792;2022-09-20T07:47:08;11.32;;;4.00;;
44995;SDS011;30729;49.486;10.792;2022-09-20T07:49:35;15.25;;;4.20;;
44995;SDS011;30729;49.486;10.792;2022-09-20T07:52:01;12.98;;;3.50;;
44995;SDS011;30729;49.486;10.792;2022-09-20T07:54:27;17.83;;;4.50;;
44995;SDS011;30729;49.486;10.792;2022-09-20T07:56:52;15.45;;;4.63;;
44995;SDS011;30729;49.486;10.792;2022-09-20T07:59:18;11.15;;;3.20;;
44995;SDS011;30729;49.486;10.792;2022-09-20T08:01:44;11.98;;;3.22;;
44995;SDS011;30729;49.486;10.792;2022-09-20T08:04:09;12.73;;;4.03;;
44995;SDS011;30729;49.486;10.792;2022-09-20T08:06:35;11.02;;;3.42;;
44995;SDS011;30729;49.486;10.792;2022-09-20T08:09:05;10.98;;;3.10;;
44995;SDS011;30729;49.486;10.792;2022-09-20T08:11:31;12.63;;;3.17;;
44995;SDS011;30729;49.486;10.792;2022-09-20T08:13:58;12.85;;;4.93;;
44995;SDS011;30729;49.486;10.792;2022-09-20T08:16:24;8.32;;;2.53;;
44995;SDS011;30729;49.486;10.792;2022-09-20T08:18:52;11.02;;;2.78;;
44995;SDS011;30729;49.486;10.792;2022-09-20T08:21:21;8.95;;;2.22;;
44995;SDS011;30729;49.486;10.792;2022-09-20T08:23:48;11.85;;;3.53;;
44995;SDS011;30729;49.486;10.792;2022-09-20T08:26:15;17.75;;;3.33;;
44995;SDS011;30729;49.486;10.792;2022-09-20T08:28:43;10.43;;;2.72;;
44995;SDS011;30729;49.486;10.792;2022-09-20T08:31:10;8.25;;;2.13;;
44995;SDS011;30729;49.486;10.792;2022-09-20T08:33:38;12.90;;;2.80;;
44995;SDS011;30729;49.486;10.792;2022-09-20T08:36:08;7.22;;;2.28;;
44995;SDS011;30729;49.486;10.792;2022-09-20T08:38:36;11.88;;;2.80;;
44995;SDS011;30729;49.486;10.792;2022-09-20T08:43:35;8.65;;;2.45;;
44995;SDS011;30729;49.486;10.792;2022-09-20T08:46:03;6.15;;;1.85;;
44995;SDS011;30729;49.486;10.792;2022-09-20T08:48:32;9.70;;;2.00;;
44995;SDS011;30729;49.486;10.792;2022-09-20T08:51:01;9.30;;;2.60;;
44995;SDS011;30729;49.486;10.792;2022-09-20T08:53:30;15.18;;;3.53;;
44995;SDS011;30729;49.486;10.792;2022-09-20T08:55:56;14.30;;;2.45;;
44995;SDS011;30729;49.486;10.792;2022-09-20T08:58:23;11.80;;;2.15;;
44995;SDS011;30729;49.486;10.792;2022-09-20T09:00:52;10.20;;;1.65;;
44995;SDS011;30729;49.486;10.792;2022-09-20T09:03:20;9.82;;;1.98;;
44995;SDS011;30729;49.486;10.792;2022-09-20T09:05:46;8.60;;;1.75;;
44995;SDS011;30729;49.486;10.792;2022-09-20T09:10:46;15.88;;;3.90;;
44995;SDS011;30729;49.486;10.792;2022-09-20T09:13:23;12.52;;;2.17;;
44995;SDS011;30729;49.486;10.792;2022-09-20T09:15:57;7.03;;;2.05;;
44995;SDS011;30729;49.486;10.792;2022-09-20T09:18:27;10.95;;;2.40;;
44995;SDS011;30729;49.486;10.792;2022-09-20T09:21:01;11.05;;;2.40;;
44995;SDS011;30729;49.486;10.792;2022-09-20T09:23:29;11.32;;;1.90;;
44995;SDS011;30729;49.486;10.792;2022-09-20T09:26:02;11.20;;;2.13;;
44995;SDS011;30729;49.486;10.792;2022-09-20T09:28:29;7.97;;;2.03;;
44995;SDS011;30729;49.486;10.792;2022-09-20T09:31:11;6.47;;;1.50;;
44995;SDS011;30729;49.486;10.792;2022-09-20T09:33:49;5.00;;;1.60;;
44995;SDS011;30729;49.486;10.792;2022-09-20T09:36:16;7.65;;;2.00;;
44995;SDS011;30729;49.486;10.792;2022-09-20T09:38:47;8.57;;;1.77;;
44995;SDS011;30729;49.486;10.792;2022-09-20T09:41:33;6.20;;;1.55;;
44995;SDS011;30729;49.486;10.792;2022-09-20T09:44:02;9.13;;;1.60;;
44995;SDS011;30729;49.486;10.792;2022-09-20T09:46:36;8.02;;;1.77;;
44995;SDS011;30729;49.486;10.792;2022-09-20T09:51:42;10.02;;;2.00;;
44995;SDS011;30729;49.486;10.792;2022-09-20T09:54:26;11.60;;;1.45;;
44995;SDS011;30729;49.486;10.792;2022-09-20T09:57:02;7.13;;;1.40;;
44995;SDS011;30729;49.486;10.792;2022-09-20T10:07:31;8.85;;;2.13;;
44995;SDS011;30729;49.486;10.792;2022-09-20T10:10:39;9.40;;;1.90;;
44995;SDS011;30729;49.486;10.792;2022-09-20T10:24:11;12.35;;;1.73;;
44995;SDS011;30729;49.486;10.792;2022-09-20T10:29:40;11.15;;;2.42;;
44995;SDS011;30729;49.486;10.792;2022-09-20T10:37:39;7.93;;;1.85;;
44995;SDS011;30729;49.486;10.792;2022-09-20T10:45:44;8.43;;;1.70;;
44995;SDS011;30729;49.486;10.792;2022-09-20T10:50:59;9.60;;;2.17;;
44995;SDS011;30729;49.486;10.792;2022-09-20T10:56:26;5.78;;;1.55;;
44995;SDS011;30729;49.486;10.792;2022-09-20T11:01:41;9.20;;;1.85;;
44995;SDS011;30729;49.486;10.792;2022-09-20T11:10:02;6.28;;;1.45;;
44995;SDS011;30729;49.486;10.792;2022-09-20T11:12:43;9.32;;;1.55;;
44995;SDS011;30729;49.486;10.792;2022-09-20T11:21:23;12.60;;;1.50;;
44995;SDS011;30729;49.486;10.792;2022-09-20T11:26:41;4.38;;;1.40;;
44995;SDS011;30729;49.486;10.792;2022-09-20T11:32:09;10.13;;;1.65;;
44995;SDS011;30729;49.486;10.792;2022-09-20T11:34:58;4.82;;;1.23;;
44995;SDS011;30729;49.486;10.792;2022-09-20T11:37:28;6.07;;;1.42;;
44995;SDS011;30729;49.486;10.792;2022-09-20T11:39:58;8.77;;;1.92;;
44995;SDS011;30729;49.486;10.792;2022-09-20T11:42:28;5.38;;;1.25;;
44995;SDS011;30729;49.486;10.792;2022-09-20T11:44:56;7.85;;;1.70;;
44995;SDS011;30729;49.486;10.792;2022-09-20T11:47:23;4.20;;;1.20;;
44995;SDS011;30729;49.486;10.792;2022-09-20T11:58:06;7.60;;;3.15;;
44995;SDS011;30729;49.486;10.792;2022-09-20T12:00:38;2.38;;;1.00;;
44995;SDS011;30729;49.486;10.792;2022-09-20T12:03:16;4.43;;;1.65;;
44995;SDS011;30729;49.486;10.792;2022-09-20T12:05:45;6.07;;;1.25;;
44995;SDS011;30729;49.486;10.792;2022-09-20T12:08:19;6.15;;;1.33;;
44995;SDS011;30729;49.486;10.792;2022-09-20T12:10:55;8.95;;;1.50;;
44995;SDS011;30729;49.486;10.792;2022-09-20T12:13:25;6.72;;;2.65;;
44995;SDS011;30729;49.486;10.792;2022-09-20T12:15:59;7.15;;;1.42;;
44995;SDS011;30729;49.486;10.792;2022-09-20T12:18:34;7.70;;;1.50;;
44995;SDS011;30729;49.486;10.792;2022-09-20T12:21:11;8.07;;;1.33;;
44995;SDS011;30729;49.486;10.792;2022-09-20T12:23:42;6.13;;;1.52;;
44995;SDS011;30729;49.486;10.792;2022-09-20T12:28:43;4.88;;;1.30;;
44995;SDS011;30729;49.486;10.792;2022-09-20T12:33:59;3.30;;;1.00;;
44995;SDS011;30729;49.486;10.792;2022-09-20T12:39:23;4.07;;;1.15;;
44995;SDS011;30729;49.486;10.792;2022-09-20T12:57:55;4.97;;;1.08;;
44995;SDS011;30729;49.486;10.792;2022-09-20T13:00:32;5.20;;;1.20;;
44995;SDS011;30729;49.486;10.792;2022-09-20T13:11:18;5.35;;;0.98;;
44995;SDS011;30729;49.486;10.792;2022-09-20T13:13:48;5.47;;;1.40;;
44995;SDS011;30729;49.486;10.792;2022-09-20T13:17:12;3.67;;;1.13;;
44995;SDS011;30729;49.486;10.792;2022-09-20T13:19:20;6.15;;;1.23;;
44995;SDS011;30729;49.486;10.792;2022-09-20T13:21:55;5.57;;;1.20;;
44995;SDS011;30729;49.486;10.792;2022-09-20T13:24:29;4.80;;;1.00;;
44995;SDS011;30729;49.486;10.792;2022-09-20T13:27:02;6.13;;;1.10;;
44995;SDS011;30729;49.486;10.792;2022-09-20T13:29:31;8.95;;;2.03;;
44995;SDS011;30729;49.486;10.792;2022-09-20T13:32:14;4.93;;;1.20;;
44995;SDS011;30729;49.486;10.792;2022-09-20T13:34:40;4.00;;;0.80;;
44995;SDS011;30729;49.486;10.792;2022-09-20T13:37:07;5.03;;;1.20;;
44995;SDS011;30729;49.486;10.792;2022-09-20T13:39:45;6.75;;;1.10;;
44995;SDS011;30729;49.486;10.792;2022-09-20T13:42:12;4.88;;;1.10;;
44995;SDS011;30729;49.486;10.792;2022-09-20T13:44:43;4.88;;;1.55;;
44995;SDS011;30729;49.486;10.792;2022-09-20T13:47:29;4.00;;;1.13;;
44995;SDS011;30729;49.486;10.792;2022-09-20T13:50:07;3.55;;;1.00;;
44995;SDS011;30729;49.486;10.792;2022-09-20T13:52:46;6.88;;;1.20;;
44995;SDS011;30729;49.486;10.792;2022-09-20T13:57:54;5.32;;;1.20;;
44995;SDS011;30729;49.486;10.792;2022-09-20T14:00:21;5.90;;;1.10;;
44995;SDS011;30729;49.486;10.792;2022-09-20T14:02:49;6.15;;;1.27;;
44995;SDS011;30729;49.486;10.792;2022-09-20T14:05:18;7.40;;;1.20;;
44995;SDS011;30729;49.486;10.792;2022-09-20T14:07:45;10.05;;;2.33;;
44995;SDS011;30729;49.486;10.792;2022-09-20T14:15:40;6.15;;;0.90;;
44995;SDS011;30729;49.486;10.792;2022-09-20T14:18:17;3.65;;;1.08;;
44995;SDS011;30729;49.486;10.792;2022-09-20T14:20:46;2.17;;;0.80;;
44995;SDS011;30729;49.486;10.792;2022-09-20T14:23:22;2.83;;;0.90;;
44995;SDS011;30729;49.486;10.792;2022-09-20T14:28:30;3.75;;;1.00;;
44995;SDS011;30729;49.486;10.792;2022-09-20T14:31:02;9.32;;;3.63;;
44995;SDS011;30729;49.486;10.792;2022-09-20T14:33:39;9.65;;;2.58;;
44995;SDS011;30729;49.486;10.792;2022-09-20T14:36:13;3.40;;;1.10;;
44995;SDS011;30729;49.486;10.792;2022-09-20T14:38:42;4.32;;;1.25;;
44995;SDS011;30729;49.486;10.792;2022-09-20T14:41:09;4.85;;;1.77;;
44995;SDS011;30729;49.486;10.792;2022-09-20T14:43:35;4.70;;;1.60;;
44995;SDS011;30729;49.486;10.792;2022-09-20T14:46:04;3.05;;;1.23;;
44995;SDS011;30729;49.486;10.792;2022-09-20T14:48:37;1.67;;;0.77;;
44995;SDS011;30729;49.486;10.792;2022-09-20T14:53:35;4.47;;;1.10;;
44995;SDS011;30729;49.486;10.792;2022-09-20T14:58:30;1.60;;;0.65;;
44995;SDS011;30729;49.486;10.792;2022-09-20T15:01:01;3.17;;;0.85;;
44995;SDS011;30729;49.486;10.792;2022-09-20T15:03:31;3.07;;;0.87;;
44995;SDS011;30729;49.486;10.792;2022-09-20T15:05:58;5.07;;;0.90;;
44995;SDS011;30729;49.486;10.792;2022-09-20T15:08:24;5.07;;;1.05;;
44995;SDS011;30729;49.486;10.792;2022-09-20T15:10:49;4.15;;;1.38;;
44995;SDS011;30729;49.486;10.792;2022-09-20T15:13:15;5.72;;;1.25;;
44995;SDS011;30729;49.486;10.792;2022-09-20T15:15:41;6.90;;;1.83;;
44995;SDS011;30729;49.486;10.792;2022-09-20T15:18:27;7.20;;;1.30;;
44995;SDS011;30729;49.486;10.792;2022-09-20T15:20:58;2.08;;;0.80;;
44995;SDS011;30729;49.486;10.792;2022-09-20T15:23:23;3.70;;;1.20;;
44995;SDS011;30729;49.486;10.792;2022-09-20T15:25:49;5.25;;;1.15;;
44995;SDS011;30729;49.486;10.792;2022-09-20T15:28:16;16.95;;;8.82;;
44995;SDS011;30729;49.486;10.792;2022-09-20T15:30:44;2.17;;;1.08;;
44995;SDS011;30729;49.486;10.792;2022-09-20T15:33:11;6.78;;;2.03;;
44995;SDS011;30729;49.486;10.792;2022-09-20T15:35:38;8.20;;;1.55;;
44995;SDS011;30729;49.486;10.792;2022-09-20T15:38:05;4.35;;;1.20;;
44995;SDS011;30729;49.486;10.792;2022-09-20T15:40:33;4.22;;;1.17;;
44995;SDS011;30729;49.486;10.792;2022-09-20T15:43:10;2.67;;;0.93;;
44995;SDS011;30729;49.486;10.792;2022-09-20T15:45:45;3.45;;;1.25;;
44995;SDS011;30729;49.486;10.792;2022-09-20T15:48:14;3.75;;;1.02;;
44995;SDS011;30729;49.486;10.792;2022-09-20T15:50:40;4.07;;;1.27;;
44995;SDS011;30729;49.486;10.792;2022-09-20T15:53:06;2.42;;;1.15;;
44995;SDS011;30729;49.486;10.792;2022-09-20T15:55:32;5.22;;;1.40;;
44995;SDS011;30729;49.486;10.792;2022-09-20T15:58:00;4.03;;;1.27;;
44995;SDS011;30729;49.486;10.792;2022-09-20T16:00:26;4.65;;;1.25;;
44995;SDS011;30729;49.486;10.792;2022-09-20T16:02:51;4.82;;;1.80;;
44995;SDS011;30729;49.486;10.792;2022-09-20T16:05:16;4.72;;;1.50;;
44995;SDS011;30729;49.486;10.792;2022-09-20T16:07:42;3.35;;;1.27;;
44995;SDS011;30729;49.486;10.792;2022-09-20T16:10:07;4.65;;;1.80;;
44995;SDS011;30729;49.486;10.792;2022-09-20T16:12:33;5.80;;;1.80;;
44995;SDS011;30729;49.486;10.792;2022-09-20T16:14:58;5.22;;;2.30;;
44995;SDS011;30729;49.486;10.792;2022-09-20T16:17:23;7.85;;;2.10;;
44995;SDS011;30729;49.486;10.792;2022-09-20T16:20:09;6.65;;;2.20;;
44995;SDS011;30729;49.486;10.792;2022-09-20T16:22:34;6.25;;;2.85;;
44995;SDS011;30729;49.486;10.792;2022-09-20T16:24:59;7.13;;;2.05;;
44995;SDS011;30729;49.486;10.792;2022-09-20T16:27:25;4.82;;;1.80;;
44995;SDS011;30729;49.486;10.792;2022-09-20T16:29:50;4.90;;;1.80;;
44995;SDS011;30729;49.486;10.792;2022-09-20T16:32:16;5.60;;;2.15;;
44995;SDS011;30729;49.486;10.792;2022-09-20T16:34:41;6.07;;;1.88;;
44995;SDS011;30729;49.486;10.792;2022-09-20T16:37:10;7.10;;;2.30;;
44995;SDS011;30729;49.486;10.792;2022-09-20T16:39:39;9.93;;;3.00;;
44995;SDS011;30729;49.486;10.792;2022-09-20T16:42:06;6.25;;;2.35;;
44995;SDS011;30729;49.486;10.792;2022-09-20T16:44:36;4.65;;;2.30;;
44995;SDS011;30729;49.486;10.792;2022-09-20T16:47:03;5.88;;;2.10;;
44995;SDS011;30729;49.486;10.792;2022-09-20T16:49:36;6.97;;;2.40;;
44995;SDS011;30729;49.486;10.792;2022-09-20T16:52:05;7.32;;;1.85;;
44995;SDS011;30729;49.486;10.792;2022-09-20T16:54:32;5.43;;;1.70;;
44995;SDS011;30729;49.486;10.792;2022-09-20T16:56:57;3.10;;;1.65;;
44995;SDS011;30729;49.486;10.792;2022-09-20T16:59:23;5.43;;;1.75;;
44995;SDS011;30729;49.486;10.792;2022-09-20T17:01:49;7.88;;;2.60;;
44995;SDS011;30729;49.486;10.792;2022-09-20T17:04:15;6.50;;;2.25;;
44995;SDS011;30729;49.486;10.792;2022-09-20T17:06:42;8.50;;;3.42;;
44995;SDS011;30729;49.486;10.792;2022-09-20T17:09:09;10.00;;;3.67;;
44995;SDS011;30729;49.486;10.792;2022-09-20T17:11:36;10.77;;;4.88;;
44995;SDS011;30729;49.486;10.792;2022-09-20T17:14:04;11.57;;;4.82;;
44995;SDS011;30729;49.486;10.792;2022-09-20T17:16:31;8.75;;;4.47;;
44995;SDS011;30729;49.486;10.792;2022-09-20T17:18:59;10.25;;;3.70;;
44995;SDS011;30729;49.486;10.792;2022-09-20T17:21:26;6.55;;;2.28;;
44995;SDS011;30729;49.486;10.792;2022-09-20T17:23:54;6.07;;;2.30;;
44995;SDS011;30729;49.486;10.792;2022-09-20T17:28:52;5.57;;;2.63;;
44995;SDS011;30729;49.486;10.792;2022-09-20T17:31:21;6.93;;;2.92;;
44995;SDS011;30729;49.486;10.792;2022-09-20T17:33:48;7.15;;;3.22;;
44995;SDS011;30729;49.486;10.792;2022-09-20T17:36:15;8.57;;;2.65;;
44995;SDS011;30729;49.486;10.792;2022-09-20T17:38:43;9.13;;;3.13;;
44995;SDS011;30729;49.486;10.792;2022-09-20T17:41:16;8.85;;;3.55;;
44995;SDS011;30729;49.486;10.792;2022-09-20T17:43:43;12.20;;;4.13;;
44995;SDS011;30729;49.486;10.792;2022-09-20T17:46:14;8.98;;;5.38;;
44995;SDS011;30729;49.486;10.792;2022-09-20T17:48:53;9.23;;;5.18;;
44995;SDS011;30729;49.486;10.792;2022-09-20T17:51:23;8.77;;;4.75;;
44995;SDS011;30729;49.486;10.792;2022-09-20T17:53:51;8.50;;;4.90;;
44995;SDS011;30729;49.486;10.792;2022-09-20T17:56:17;9.60;;;4.60;;
44995;SDS011;30729;49.486;10.792;2022-09-20T17:58:44;12.07;;;5.65;;
44995;SDS011;30729;49.486;10.792;2022-09-20T18:01:12;12.05;;;5.10;;
44995;SDS011;30729;49.486;10.792;2022-09-20T18:03:40;14.70;;;11.45;;
44995;SDS011;30729;49.486;10.792;2022-09-20T18:06:14;15.48;;;9.57;;
44995;SDS011;30729;49.486;10.792;2022-09-20T18:08:45;13.98;;;8.75;;
44995;SDS011;30729;49.486;10.792;2022-09-20T18:11:16;15.35;;;9.85;;
44995;SDS011;30729;49.486;10.792;2022-09-20T18:13:42;15.35;;;10.60;;
44995;SDS011;30729;49.486;10.792;2022-09-20T18:16:11;15.55;;;10.93;;
44995;SDS011;30729;49.486;10.792;2022-09-20T18:18:39;15.32;;;10.25;;
44995;SDS011;30729;49.486;10.792;2022-09-20T18:23:34;17.23;;;8.93;;
44995;SDS011;30729;49.486;10.792;2022-09-20T18:26:04;18.05;;;10.00;;
44995;SDS011;30729;49.486;10.792;2022-09-20T18:28:45;21.02;;;9.68;;
44995;SDS011;30729;49.486;10.792;2022-09-20T18:31:11;22.48;;;12.95;;
44995;SDS011;30729;49.486;10.792;2022-09-20T18:33:37;21.20;;;10.60;;
44995;SDS011;30729;49.486;10.792;2022-09-20T18:36:03;10.98;;;4.88;;
44995;SDS011;30729;49.486;10.792;2022-09-20T18:38:30;9.98;;;4.47;;
44995;SDS011;30729;49.486;10.792;2022-09-20T18:40:57;9.50;;;4.78;;
44995;SDS011;30729;49.486;10.792;2022-09-20T18:43:30;11.93;;;5.00;;
44995;SDS011;30729;49.486;10.792;2022-09-20T18:45:57;9.57;;;5.05;;
44995;SDS011;30729;49.486;10.792;2022-09-20T18:48:23;10.90;;;4.93;;
44995;SDS011;30729;49.486;10.792;2022-09-20T18:50:57;8.98;;;4.63;;
44995;SDS011;30729;49.486;10.792;2022-09-20T18:53:28;15.57;;;5.90;;
44995;SDS011;30729;49.486;10.792;2022-09-20T18:55:55;11.68;;;7.63;;
44995;SDS011;30729;49.486;10.792;2022-09-20T18:58:29;11.43;;;6.60;;
44995;SDS011;30729;49.486;10.792;2022-09-20T19:00:59;13.27;;;6.93;;
44995;SDS011;30729;49.486;10.792;2022-09-20T19:06:29;12.48;;;7.43;;
44995;SDS011;30729;49.486;10.792;2022-09-20T19:09:02;15.80;;;9.18;;
44995;SDS011;30729;49.486;10.792;2022-09-20T19:11:40;16.42;;;8.65;;
44995;SDS011;30729;49.486;10.792;2022-09-20T19:14:34;14.13;;;9.35;;
44995;SDS011;30729;49.486;10.792;2022-09-20T19:17:06;12.38;;;7.15;;
44995;SDS011;30729;49.486;10.792;2022-09-20T19:22:35;16.05;;;7.20;;
44995;SDS011;30729;49.486;10.792;2022-09-20T19:25:41;13.55;;;6.57;;
44995;SDS011;30729;49.486;10.792;2022-09-20T19:28:12;15.02;;;7.35;;
44995;SDS011;30729;49.486;10.792;2022-09-20T19:30:39;14.13;;;7.78;;
44995;SDS011;30729;49.486;10.792;2022-09-20T19:33:13;14.23;;;8.85;;
44995;SDS011;30729;49.486;10.792;2022-09-20T19:35:41;13.38;;;8.63;;
44995;SDS011;30729;49.486;10.792;2022-09-20T19:41:00;15.43;;;6.28;;
44995;SDS011;30729;49.486;10.792;2022-09-20T19:49:12;11.73;;;5.65;;
44995;SDS011;30729;49.486;10.792;2022-09-20T19:51:40;11.27;;;5.30;;
44995;SDS011;30729;49.486;10.792;2022-09-20T19:54:11;10.80;;;4.45;;
44995;SDS011;30729;49.486;10.792;2022-09-20T19:56:43;8.95;;;4.10;;
44995;SDS011;30729;49.486;10.792;2022-09-20T19:59:17;14.77;;;5.35;;
44995;SDS011;30729;49.486;10.792;2022-09-20T20:01:43;10.45;;;5.75;;
44995;SDS011;30729;49.486;10.792;2022-09-20T20:04:09;10.00;;;5.47;;
44995;SDS011;30729;49.486;10.792;2022-09-20T20:06:37;12.60;;;5.82;;
44995;SDS011;30729;49.486;10.792;2022-09-20T20:14:47;14.73;;;6.75;;
44995;SDS011;30729;49.486;10.792;2022-09-20T20:20:28;8.48;;;4.50;;
44995;SDS011;30729;49.486;10.792;2022-09-20T20:28:26;7.13;;;4.43;;
44995;SDS011;30729;49.486;10.792;2022-09-20T20:30:52;7.35;;;3.90;;
44995;SDS011;30729;49.486;10.792;2022-09-20T20:33:18;7.57;;;3.45;;
44995;SDS011;30729;49.486;10.792;2022-09-20T20:35:50;12.15;;;5.68;;
44995;SDS011;30729;49.486;10.792;2022-09-20T20:38:17;10.15;;;4.10;;
44995;SDS011;30729;49.486;10.792;2022-09-20T20:40:43;14.30;;;4.90;;
44995;SDS011;30729;49.486;10.792;2022-09-20T20:43:08;6.63;;;3.70;;
44995;SDS011;30729;49.486;10.792;2022-09-20T20:45:34;9.05;;;3.95;;